Seaexpressii — HO4619 — position and weather

sailwx.info

Track history (hours):
 
Tides and Currents Weather Stations Pressure Air Temp Water Temp Dewpoint Dewpoint Depression Visibility Wind Speed Wind Dir Waves Ship Positions

Seaexpressii

Last reported at 2017-Mar-24 17:34 UTC. Time now 2017-Mar-24 18:13 UTC.
Position N 26°04' W 080°08'.

Length 37 m; draft 2.2 m.

Type: Ship (hazmat cat C). MMSI: 356449000.

Date/timePositionNaut miles runAvg speedWind from/ knotsBaromVisibWave heightAir tempDewpointWater temp
2017-Mar-24 17:34N 26°04' W 080°08'0 0.0
2017-Mar-24 16:34N 26°04' W 080°08'0 0.1
2017-Mar-24 15:34N 26°04' W 080°08'0 0.0
2017-Mar-24 14:33N 26°04' W 080°08'0 0.0
2017-Mar-24 13:33N 26°04' W 080°08'0 0.0
2017-Mar-24 12:34N 26°04' W 080°08'0 0.0
2017-Mar-24 11:34N 26°04' W 080°08'0 0.0
2017-Mar-24 10:34N 26°04' W 080°08'0 0.0
2017-Mar-24 09:34N 26°04' W 080°08'0 0.0
2017-Mar-24 08:33N 26°04' W 080°08'0 0.0
2017-Mar-24 07:34N 26°04' W 080°08'0 0.0
2017-Mar-24 06:34N 26°04' W 080°08'0 0.0
2017-Mar-24 05:34N 26°04' W 080°08'0 0.0
2017-Mar-24 04:33N 26°04' W 080°08'0 0.0
2017-Mar-24 03:34N 26°04' W 080°08'0 0.0
2017-Mar-24 02:33N 26°04' W 080°08'0 0.0
2017-Mar-24 01:33N 26°04' W 080°08'0 0.0
2017-Mar-24 00:34N 26°04' W 080°08'0 0.0
2017-Mar-23 23:33N 26°04' W 080°08'0 0.0
2017-Mar-23 22:34N 26°04' W 080°08'4 4.3
2017-Mar-23 21:34N 26°06' W 080°04'4 4.2
2017-Mar-23 20:33N 26°04' W 080°08'0 0.0
2017-Mar-23 19:33N 26°04' W 080°08'0 0.0
2017-Mar-23 18:33N 26°04' W 080°08'0 0.0
2017-Mar-23 17:34N 26°04' W 080°08'0 0.0
2017-Mar-23 16:33N 26°04' W 080°08'0 0.0
2017-Mar-23 15:34N 26°04' W 080°08'2 2.4
2017-Mar-23 14:34N 26°06' W 080°06'1110.7
2017-Mar-23 13:33N 26°02' W 079°55'1110.9
2017-Mar-23 12:33N 25°59' W 079°43'3 0.1
2017-Mar-22 02:31N 25°58' W 079°40'8 8.7
2017-Mar-22 01:33N 26°01' W 079°49'7 7.4
2017-Mar-22 00:34N 26°04' W 079°57'8 8.5
2017-Mar-21 23:33N 26°06' W 080°06'3 2.6
2017-Mar-21 22:33N 26°04' W 080°08'0 0.0
2017-Mar-21 21:33N 26°04' W 080°08'0 0.0
2017-Mar-21 20:33N 26°04' W 080°08'0 0.0
2017-Mar-21 19:33N 26°04' W 080°08'0 0.0
2017-Mar-21 18:33N 26°04' W 080°08'0 0.0
2017-Mar-21 17:33N 26°04' W 080°08'0 0.0
2017-Mar-21 16:34N 26°04' W 080°08'0 0.0
2017-Mar-21 15:34N 26°04' W 080°08'0 0.0
2017-Mar-21 14:33N 26°04' W 080°08'0 0.0
2017-Mar-21 13:34N 26°04' W 080°08'0 0.0
2017-Mar-21 12:34N 26°04' W 080°08'0 0.0
2017-Mar-21 11:34N 26°04' W 080°08'0 0.0
2017-Mar-21 10:33N 26°04' W 080°08'0 0.0
2017-Mar-21 09:33N 26°04' W 080°08'0 0.0
2017-Mar-21 08:33N 26°04' W 080°08'0 0.0
2017-Mar-21 07:33N 26°04' W 080°08'0 0.0
2017-Mar-21 06:33N 26°04' W 080°08'0 0.0
2017-Mar-21 05:33N 26°04' W 080°08'0 0.0
2017-Mar-21 04:34N 26°04' W 080°08'0 0.0
2017-Mar-21 03:34N 26°04' W 080°08'0 0.0
2017-Mar-21 02:34N 26°04' W 080°08'0 0.0
2017-Mar-21 01:33N 26°04' W 080°08'0 0.0
2017-Mar-21 00:34N 26°04' W 080°08'0 0.0
2017-Mar-20 23:33N 26°04' W 080°08'0 0.0
2017-Mar-20 22:34N 26°04' W 080°08'0 0.0
2017-Mar-20 21:34N 26°04' W 080°08'0 0.0
2017-Mar-20 20:34N 26°04' W 080°08'0 0.0
2017-Mar-20 19:34N 26°04' W 080°08'0 0.0
2017-Mar-20 18:34N 26°04' W 080°08'0 0.0
2017-Mar-20 17:34N 26°04' W 080°08'0 0.0
2017-Mar-20 16:34N 26°04' W 080°08'0 0.0
2017-Mar-20 15:34N 26°04' W 080°08'0 0.0
2017-Mar-20 14:34N 26°04' W 080°08'0 0.0
2017-Mar-20 13:34N 26°04' W 080°08'0 0.0
2017-Mar-20 12:33N 26°04' W 080°08'0 0.0
2017-Mar-20 11:34N 26°04' W 080°08'0 0.0
2017-Mar-20 10:33N 26°04' W 080°08'0 0.0
2017-Mar-20 09:33N 26°04' W 080°08'0 0.0
2017-Mar-20 08:34N 26°04' W 080°08'0 0.0
2017-Mar-20 07:33N 26°04' W 080°08'0 0.0
2017-Mar-20 06:34N 26°04' W 080°08'0 0.0
2017-Mar-20 05:34N 26°04' W 080°08'0 0.0
2017-Mar-20 04:34N 26°04' W 080°08'0 0.0
2017-Mar-20 03:33N 26°04' W 080°08'0 0.0
2017-Mar-20 02:34N 26°04' W 080°08'0 0.0
2017-Mar-20 01:33N 26°04' W 080°08'0 0.0
2017-Mar-20 00:34N 26°04' W 080°08'0 0.0
2017-Mar-19 23:34N 26°04' W 080°08'0 0.0
2017-Mar-19 22:33N 26°04' W 080°08'3 2.7
2017-Mar-19 21:33N 26°05' W 080°05'4 4.0
2017-Mar-19 20:33N 26°04' W 080°01'1110.7
2017-Mar-19 19:33N 26°01' W 079°50'17 0.3
2017-Mar-17 20:05N 26°05' W 079°32'5 9.3
2017-Mar-17 19:31N 26°05' W 079°38'9 9.0
2017-Mar-17 18:33N 26°05' W 079°47'9 8.9
2017-Mar-17 17:33N 26°05' W 079°57'9 8.6
2017-Mar-17 16:33N 26°05' W 080°07'2 1.7
2017-Mar-17 15:34N 26°04' W 080°08'0 0.0
2017-Mar-17 14:33N 26°04' W 080°08'0 0.0
2017-Mar-17 13:33N 26°04' W 080°08'0 0.0
2017-Mar-17 12:33N 26°04' W 080°08'0 0.0
2017-Mar-17 11:34N 26°04' W 080°08'0 0.0
2017-Mar-17 10:34N 26°04' W 080°08'6 5.7
2017-Mar-17 09:33N 26°05' W 080°02'6 6.4
2017-Mar-17 08:33N 26°06' W 079°55'7 7.1
2017-Mar-17 07:33N 26°05' W 079°47'8 8.4
2017-Mar-17 06:33N 26°05' W 079°38'9 0.7
2017-Mar-16 17:31N 26°14' W 079°38'9 9.4
2017-Mar-16 16:33N 26°11' W 079°48'9 9.1
2017-Mar-16 15:33N 26°08' W 079°57'9 8.9
2017-Mar-16 14:34N 26°05' W 080°07'2 2.0
2017-Mar-16 13:34N 26°04' W 080°08'0 0.1
2017-Mar-16 12:34N 26°04' W 080°08'0 0.0
2017-Mar-16 11:34N 26°04' W 080°08'0 0.0
2017-Mar-16 10:33N 26°04' W 080°08'0 0.0
2017-Mar-16 09:33N 26°04' W 080°08'0 0.0
2017-Mar-16 08:34N 26°04' W 080°08'0 0.0
2017-Mar-16 07:34N 26°04' W 080°08'0 0.0
2017-Mar-16 06:33N 26°04' W 080°08'0 0.0
2017-Mar-16 05:34N 26°04' W 080°08'0 0.0
2017-Mar-16 04:33N 26°04' W 080°08'0 0.0
2017-Mar-16 03:33N 26°04' W 080°08'0 0.0
2017-Mar-16 02:33N 26°04' W 080°08'0 0.0
2017-Mar-16 01:34N 26°04' W 080°08'0 0.0
2017-Mar-16 00:33N 26°04' W 080°08'5 5.2
2017-Mar-15 23:33N 26°04' W 080°02'1110.8
2017-Mar-15 22:33N 26°01' W 079°51'  
Track history (hours):
 
Tides and Currents Weather Stations Pressure Air Temp Water Temp Dewpoint Dewpoint Depression Visibility Wind Speed Wind Dir Waves Ship Positions

Seaexpressii

Last reported at 2017-Mar-24 17:34 UTC. Time now 2017-Mar-24 18:13 UTC.
Position N 26°04' W 080°08'.

Length 37 m; draft 2.2 m.

Type: Ship (hazmat cat C). MMSI: 356449000.

Date/timePositionNaut miles runAvg speedWind from/ knotsBaromVisibWave heightAir tempDewpointWater temp
2017-Mar-24 17:34N 26°04' W 080°08'0 0.0
2017-Mar-24 16:34N 26°04' W 080°08'0 0.1
2017-Mar-24 15:34N 26°04' W 080°08'0 0.0
2017-Mar-24 14:33N 26°04' W 080°08'0 0.0
2017-Mar-24 13:33N 26°04' W 080°08'0 0.0
2017-Mar-24 12:34N 26°04' W 080°08'0 0.0
2017-Mar-24 11:34N 26°04' W 080°08'0 0.0
2017-Mar-24 10:34N 26°04' W 080°08'0 0.0
2017-Mar-24 09:34N 26°04' W 080°08'0 0.0
2017-Mar-24 08:33N 26°04' W 080°08'0 0.0
2017-Mar-24 07:34N 26°04' W 080°08'0 0.0
2017-Mar-24 06:34N 26°04' W 080°08'0 0.0
2017-Mar-24 05:34N 26°04' W 080°08'0 0.0
2017-Mar-24 04:33N 26°04' W 080°08'0 0.0
2017-Mar-24 03:34N 26°04' W 080°08'0 0.0
2017-Mar-24 02:33N 26°04' W 080°08'0 0.0
2017-Mar-24 01:33N 26°04' W 080°08'0 0.0
2017-Mar-24 00:34N 26°04' W 080°08'0 0.0
2017-Mar-23 23:33N 26°04' W 080°08'0 0.0
2017-Mar-23 22:34N 26°04' W 080°08'4 4.3
2017-Mar-23 21:34N 26°06' W 080°04'4 4.2
2017-Mar-23 20:33N 26°04' W 080°08'0 0.0
2017-Mar-23 19:33N 26°04' W 080°08'0 0.0
2017-Mar-23 18:33N 26°04' W 080°08'0 0.0
2017-Mar-23 17:34N 26°04' W 080°08'0 0.0
2017-Mar-23 16:33N 26°04' W 080°08'0 0.0
2017-Mar-23 15:34N 26°04' W 080°08'2 2.4
2017-Mar-23 14:34N 26°06' W 080°06'1110.7
2017-Mar-23 13:33N 26°02' W 079°55'1110.9
2017-Mar-23 12:33N 25°59' W 079°43'3 0.1
2017-Mar-22 02:31N 25°58' W 079°40'8 8.7
2017-Mar-22 01:33N 26°01' W 079°49'7 7.4
2017-Mar-22 00:34N 26°04' W 079°57'8 8.5
2017-Mar-21 23:33N 26°06' W 080°06'3 2.6
2017-Mar-21 22:33N 26°04' W 080°08'0 0.0
2017-Mar-21 21:33N 26°04' W 080°08'0 0.0
2017-Mar-21 20:33N 26°04' W 080°08'0 0.0
2017-Mar-21 19:33N 26°04' W 080°08'0 0.0
2017-Mar-21 18:33N 26°04' W 080°08'0 0.0
2017-Mar-21 17:33N 26°04' W 080°08'0 0.0
2017-Mar-21 16:34N 26°04' W 080°08'0 0.0
2017-Mar-21 15:34N 26°04' W 080°08'0 0.0
2017-Mar-21 14:33N 26°04' W 080°08'0 0.0
2017-Mar-21 13:34N 26°04' W 080°08'0 0.0
2017-Mar-21 12:34N 26°04' W 080°08'0 0.0
2017-Mar-21 11:34N 26°04' W 080°08'0 0.0
2017-Mar-21 10:33N 26°04' W 080°08'0 0.0
2017-Mar-21 09:33N 26°04' W 080°08'0 0.0
2017-Mar-21 08:33N 26°04' W 080°08'0 0.0
2017-Mar-21 07:33N 26°04' W 080°08'0 0.0
2017-Mar-21 06:33N 26°04' W 080°08'0 0.0
2017-Mar-21 05:33N 26°04' W 080°08'0 0.0
2017-Mar-21 04:34N 26°04' W 080°08'0 0.0
2017-Mar-21 03:34N 26°04' W 080°08'0 0.0
2017-Mar-21 02:34N 26°04' W 080°08'0 0.0
2017-Mar-21 01:33N 26°04' W 080°08'0 0.0
2017-Mar-21 00:34N 26°04' W 080°08'0 0.0
2017-Mar-20 23:33N 26°04' W 080°08'0 0.0
2017-Mar-20 22:34N 26°04' W 080°08'0 0.0
2017-Mar-20 21:34N 26°04' W 080°08'0 0.0
2017-Mar-20 20:34N 26°04' W 080°08'0 0.0
2017-Mar-20 19:34N 26°04' W 080°08'0 0.0
2017-Mar-20 18:34N 26°04' W 080°08'0 0.0
2017-Mar-20 17:34N 26°04' W 080°08'0 0.0
2017-Mar-20 16:34N 26°04' W 080°08'0 0.0
2017-Mar-20 15:34N 26°04' W 080°08'0 0.0
2017-Mar-20 14:34N 26°04' W 080°08'0 0.0
2017-Mar-20 13:34N 26°04' W 080°08'0 0.0
2017-Mar-20 12:33N 26°04' W 080°08'0 0.0
2017-Mar-20 11:34N 26°04' W 080°08'0 0.0
2017-Mar-20 10:33N 26°04' W 080°08'0 0.0
2017-Mar-20 09:33N 26°04' W 080°08'0 0.0
2017-Mar-20 08:34N 26°04' W 080°08'0 0.0
2017-Mar-20 07:33N 26°04' W 080°08'0 0.0
2017-Mar-20 06:34N 26°04' W 080°08'0 0.0
2017-Mar-20 05:34N 26°04' W 080°08'0 0.0
2017-Mar-20 04:34N 26°04' W 080°08'0 0.0
2017-Mar-20 03:33N 26°04' W 080°08'0 0.0
2017-Mar-20 02:34N 26°04' W 080°08'0 0.0
2017-Mar-20 01:33N 26°04' W 080°08'0 0.0
2017-Mar-20 00:34N 26°04' W 080°08'0 0.0
2017-Mar-19 23:34N 26°04' W 080°08'0 0.0
2017-Mar-19 22:33N 26°04' W 080°08'3 2.7
2017-Mar-19 21:33N 26°05' W 080°05'4 4.0
2017-Mar-19 20:33N 26°04' W 080°01'1110.7
2017-Mar-19 19:33N 26°01' W 079°50'17 0.3
2017-Mar-17 20:05N 26°05' W 079°32'5 9.3
2017-Mar-17 19:31N 26°05' W 079°38'9 9.0
2017-Mar-17 18:33N 26°05' W 079°47'9 8.9
2017-Mar-17 17:33N 26°05' W 079°57'9 8.6
2017-Mar-17 16:33N 26°05' W 080°07'2 1.7
2017-Mar-17 15:34N 26°04' W 080°08'0 0.0
2017-Mar-17 14:33N 26°04' W 080°08'0 0.0
2017-Mar-17 13:33N 26°04' W 080°08'0 0.0
2017-Mar-17 12:33N 26°04' W 080°08'0 0.0
2017-Mar-17 11:34N 26°04' W 080°08'0 0.0
2017-Mar-17 10:34N 26°04' W 080°08'6 5.7
2017-Mar-17 09:33N 26°05' W 080°02'6 6.4
2017-Mar-17 08:33N 26°06' W 079°55'7 7.1
2017-Mar-17 07:33N 26°05' W 079°47'8 8.4
2017-Mar-17 06:33N 26°05' W 079°38'9 0.7
2017-Mar-16 17:31N 26°14' W 079°38'9 9.4
2017-Mar-16 16:33N 26°11' W 079°48'9 9.1
2017-Mar-16 15:33N 26°08' W 079°57'9 8.9
2017-Mar-16 14:34N 26°05' W 080°07'2 2.0
2017-Mar-16 13:34N 26°04' W 080°08'0 0.1
2017-Mar-16 12:34N 26°04' W 080°08'0 0.0
2017-Mar-16 11:34N 26°04' W 080°08'0 0.0
2017-Mar-16 10:33N 26°04' W 080°08'0 0.0
2017-Mar-16 09:33N 26°04' W 080°08'0 0.0
2017-Mar-16 08:34N 26°04' W 080°08'0 0.0
2017-Mar-16 07:34N 26°04' W 080°08'0 0.0
2017-Mar-16 06:33N 26°04' W 080°08'0 0.0
2017-Mar-16 05:34N 26°04' W 080°08'0 0.0
2017-Mar-16 04:33N 26°04' W 080°08'0 0.0
2017-Mar-16 03:33N 26°04' W 080°08'0 0.0
2017-Mar-16 02:33N 26°04' W 080°08'0 0.0
2017-Mar-16 01:34N 26°04' W 080°08'0 0.0
2017-Mar-16 00:33N 26°04' W 080°08'5 5.2
2017-Mar-15 23:33N 26°04' W 080°02'1110.8
2017-Mar-15 22:33N 26°01' W 079°51'  

Dump ship's entire track history